sensor_id;sensor_type;location;lat;lon;timestamp;temperature;humidity
33927;DHT22;20485;50.992;5.550;2024-03-23T00:55:20;6.30;99.90
33927;DHT22;20485;50.992;5.550;2024-03-23T00:57:46;6.20;99.90
33927;DHT22;20485;50.992;5.550;2024-03-23T01:00:12;6.30;99.90
33927;DHT22;20485;50.992;5.550;2024-03-23T01:02:38;6.30;99.90
33927;DHT22;20485;50.992;5.550;2024-03-23T01:05:04;6.40;99.90
33927;DHT22;20485;50.992;5.550;2024-03-23T01:07:29;6.40;99.90
33927;DHT22;20485;50.992;5.550;2024-03-23T01:09:55;6.40;99.90
33927;DHT22;20485;50.992;5.550;2024-03-23T01:12:21;6.30;99.90
33927;DHT22;20485;50.992;5.550;2024-03-23T01:14:47;6.40;99.90
33927;DHT22;20485;50.992;5.550;2024-03-23T01:17:12;6.40;99.90
33927;DHT22;20485;50.992;5.550;2024-03-23T01:19:38;6.30;99.90
33927;DHT22;20485;50.992;5.550;2024-03-23T01:22:04;6.30;99.90
33927;DHT22;20485;50.992;5.550;2024-03-23T01:24:30;6.20;99.90
33927;DHT22;20485;50.992;5.550;2024-03-23T01:26:56;6.30;99.90
33927;DHT22;20485;50.992;5.550;2024-03-23T01:29:21;6.60;99.90
33927;DHT22;20485;50.992;5.550;2024-03-23T01:31:47;6.20;99.90
33927;DHT22;20485;50.992;5.550;2024-03-23T01:34:13;6.30;99.90
33927;DHT22;20485;50.992;5.550;2024-03-23T01:36:38;6.30;99.90
33927;DHT22;20485;50.992;5.550;2024-03-23T01:39:04;6.30;99.90
33927;DHT22;20485;50.992;5.550;2024-03-23T01:41:30;6.30;99.90
33927;DHT22;20485;50.992;5.550;2024-03-23T01:43:55;6.30;99.90
33927;DHT22;20485;50.992;5.550;2024-03-23T01:46:22;6.30;99.90
33927;DHT22;20485;50.992;5.550;2024-03-23T01:48:47;7.80;99.90
33927;DHT22;20485;50.992;5.550;2024-03-23T01:51:13;6.30;99.90
33927;DHT22;20485;50.992;5.550;2024-03-23T01:53:39;6.40;99.90
33927;DHT22;20485;50.992;5.550;2024-03-23T01:56:05;6.30;99.90
33927;DHT22;20485;50.992;5.550;2024-03-23T01:58:31;6.30;99.90
33927;DHT22;20485;50.992;5.550;2024-03-23T02:00:59;6.30;99.90
33927;DHT22;20485;50.992;5.550;2024-03-23T02:03:26;6.30;99.90
33927;DHT22;20485;50.992;5.550;2024-03-23T02:05:55;6.20;99.90
33927;DHT22;20485;50.992;5.550;2024-03-23T02:08:22;6.20;99.90
33927;DHT22;20485;50.992;5.550;2024-03-23T02:10:49;6.30;99.90
33927;DHT22;20485;50.992;5.550;2024-03-23T02:13:15;6.30;99.90
33927;DHT22;20485;50.992;5.550;2024-03-23T02:15:42;6.30;99.90
33927;DHT22;20485;50.992;5.550;2024-03-23T02:18:08;6.30;99.90
33927;DHT22;20485;50.992;5.550;2024-03-23T02:20:35;6.30;99.90
33927;DHT22;20485;50.992;5.550;2024-03-23T02:23:00;6.20;99.90
33927;DHT22;20485;50.992;5.550;2024-03-23T02:25:26;6.20;99.90
33927;DHT22;20485;50.992;5.550;2024-03-23T02:27:52;6.20;99.90
33927;DHT22;20485;50.992;5.550;2024-03-23T02:30:19;6.20;99.90
33927;DHT22;20485;50.992;5.550;2024-03-23T02:32:45;6.10;99.90
33927;DHT22;20485;50.992;5.550;2024-03-23T02:35:11;6.20;99.90
33927;DHT22;20485;50.992;5.550;2024-03-23T02:37:37;6.20;99.90
33927;DHT22;20485;50.992;5.550;2024-03-23T02:40:03;7.00;99.90
33927;DHT22;20485;50.992;5.550;2024-03-23T02:42:29;6.20;99.90
33927;DHT22;20485;50.992;5.550;2024-03-23T02:44:54;6.20;99.90
33927;DHT22;20485;50.992;5.550;2024-03-23T02:47:20;6.20;99.90
33927;DHT22;20485;50.992;5.550;2024-03-23T02:49:45;6.20;99.90
33927;DHT22;20485;50.992;5.550;2024-03-23T02:52:11;6.30;99.90
33927;DHT22;20485;50.992;5.550;2024-03-23T02:54:37;6.20;99.90
33927;DHT22;20485;50.992;5.550;2024-03-23T02:57:02;6.10;99.90
33927;DHT22;20485;50.992;5.550;2024-03-23T02:59:28;6.10;99.90
33927;DHT22;20485;50.992;5.550;2024-03-23T03:01:54;6.10;99.90
33927;DHT22;20485;50.992;5.550;2024-03-23T03:04:19;6.10;99.90
33927;DHT22;20485;50.992;5.550;2024-03-23T03:06:47;6.20;99.90
33927;DHT22;20485;50.992;5.550;2024-03-23T03:09:13;6.10;99.90
33927;DHT22;20485;50.992;5.550;2024-03-23T03:11:38;6.10;99.90
33927;DHT22;20485;50.992;5.550;2024-03-23T03:14:04;6.10;99.90
33927;DHT22;20485;50.992;5.550;2024-03-23T03:16:32;6.10;99.90
33927;DHT22;20485;50.992;5.550;2024-03-23T03:18:58;6.10;99.90
33927;DHT22;20485;50.992;5.550;2024-03-23T03:21:24;6.10;99.90
33927;DHT22;20485;50.992;5.550;2024-03-23T03:23:49;6.10;99.90
33927;DHT22;20485;50.992;5.550;2024-03-23T03:26:16;6.10;99.90
33927;DHT22;20485;50.992;5.550;2024-03-23T03:28:43;6.10;99.90
33927;DHT22;20485;50.992;5.550;2024-03-23T03:31:16;6.20;99.90
33927;DHT22;20485;50.992;5.550;2024-03-23T03:33:42;6.10;99.90
33927;DHT22;20485;50.992;5.550;2024-03-23T03:36:08;6.10;99.90
33927;DHT22;20485;50.992;5.550;2024-03-23T03:38:34;6.10;99.90
33927;DHT22;20485;50.992;5.550;2024-03-23T03:41:04;6.20;99.90
33927;DHT22;20485;50.992;5.550;2024-03-23T03:43:29;6.10;99.90
33927;DHT22;20485;50.992;5.550;2024-03-23T03:45:56;6.10;99.90
33927;DHT22;20485;50.992;5.550;2024-03-23T03:48:23;6.10;99.90
33927;DHT22;20485;50.992;5.550;2024-03-23T03:50:49;6.00;99.90
33927;DHT22;20485;50.992;5.550;2024-03-23T03:53:15;6.00;99.90
33927;DHT22;20485;50.992;5.550;2024-03-23T03:55:41;6.00;99.90
33927;DHT22;20485;50.992;5.550;2024-03-23T03:58:07;6.00;99.90
33927;DHT22;20485;50.992;5.550;2024-03-23T04:00:32;6.80;99.90
33927;DHT22;20485;50.992;5.550;2024-03-23T04:02:58;6.00;99.90
33927;DHT22;20485;50.992;5.550;2024-03-23T04:05:24;5.90;99.90
33927;DHT22;20485;50.992;5.550;2024-03-23T04:07:50;5.90;99.90
33927;DHT22;20485;50.992;5.550;2024-03-23T04:10:15;5.90;99.90
33927;DHT22;20485;50.992;5.550;2024-03-23T04:12:42;5.90;99.90
33927;DHT22;20485;50.992;5.550;2024-03-23T04:15:08;5.90;99.90
33927;DHT22;20485;50.992;5.550;2024-03-23T04:17:34;5.90;99.90
33927;DHT22;20485;50.992;5.550;2024-03-23T04:20:01;5.90;99.90
33927;DHT22;20485;50.992;5.550;2024-03-23T04:22:28;5.80;99.90
33927;DHT22;20485;50.992;5.550;2024-03-23T04:24:54;5.80;99.90
33927;DHT22;20485;50.992;5.550;2024-03-23T04:27:20;5.80;99.90
33927;DHT22;20485;50.992;5.550;2024-03-23T04:29:52;5.70;99.90
33927;DHT22;20485;50.992;5.550;2024-03-23T04:32:21;5.70;99.90
33927;DHT22;20485;50.992;5.550;2024-03-23T04:34:46;5.60;99.90
33927;DHT22;20485;50.992;5.550;2024-03-23T04:37:12;5.70;99.90
33927;DHT22;20485;50.992;5.550;2024-03-23T04:39:37;5.60;99.90
33927;DHT22;20485;50.992;5.550;2024-03-23T04:42:04;5.50;99.90
33927;DHT22;20485;50.992;5.550;2024-03-23T04:44:30;5.40;99.90
33927;DHT22;20485;50.992;5.550;2024-03-23T04:46:57;6.80;99.90
33927;DHT22;20485;50.992;5.550;2024-03-23T04:49:22;5.30;99.90
33927;DHT22;20485;50.992;5.550;2024-03-23T04:51:48;5.30;99.90
33927;DHT22;20485;50.992;5.550;2024-03-23T04:54:14;5.20;99.90
33927;DHT22;20485;50.992;5.550;2024-03-23T04:56:40;6.70;99.90
33927;DHT22;20485;50.992;5.550;2024-03-23T04:59:06;5.20;99.90
33927;DHT22;20485;50.992;5.550;2024-03-23T05:01:32;5.20;99.90
33927;DHT22;20485;50.992;5.550;2024-03-23T05:03:58;5.10;99.90
33927;DHT22;20485;50.992;5.550;2024-03-23T05:06:24;5.10;99.90
33927;DHT22;20485;50.992;5.550;2024-03-23T05:08:51;5.10;99.90
33927;DHT22;20485;50.992;5.550;2024-03-23T05:11:16;5.00;99.90
33927;DHT22;20485;50.992;5.550;2024-03-23T05:13:42;5.00;99.90
33927;DHT22;20485;50.992;5.550;2024-03-23T05:16:08;6.30;99.90
33927;DHT22;20485;50.992;5.550;2024-03-23T05:18:34;4.90;99.90
33927;DHT22;20485;50.992;5.550;2024-03-23T05:21:00;4.90;99.90
33927;DHT22;20485;50.992;5.550;2024-03-23T05:23:26;4.80;99.90
33927;DHT22;20485;50.992;5.550;2024-03-23T05:25:52;4.80;99.90
33927;DHT22;20485;50.992;5.550;2024-03-23T05:28:18;4.70;99.90
33927;DHT22;20485;50.992;5.550;2024-03-23T05:30:49;4.70;99.90
33927;DHT22;20485;50.992;5.550;2024-03-23T05:33:15;4.70;99.90
33927;DHT22;20485;50.992;5.550;2024-03-23T05:35:40;4.70;99.90
33927;DHT22;20485;50.992;5.550;2024-03-23T05:38:06;4.70;99.90
33927;DHT22;20485;50.992;5.550;2024-03-23T05:40:32;4.70;99.90
33927;DHT22;20485;50.992;5.550;2024-03-23T05:42:57;4.70;99.90
33927;DHT22;20485;50.992;5.550;2024-03-23T05:45:23;4.80;99.90
33927;DHT22;20485;50.992;5.550;2024-03-23T05:47:49;4.80;99.90
33927;DHT22;20485;50.992;5.550;2024-03-23T05:50:15;4.80;99.90
33927;DHT22;20485;50.992;5.550;2024-03-23T05:52:40;4.90;99.90
33927;DHT22;20485;50.992;5.550;2024-03-23T05:55:08;5.00;99.90
33927;DHT22;20485;50.992;5.550;2024-03-23T05:57:33;5.00;99.90
33927;DHT22;20485;50.992;5.550;2024-03-23T05:59:59;5.10;99.90
33927;DHT22;20485;50.992;5.550;2024-03-23T06:02:24;5.20;99.90
33927;DHT22;20485;50.992;5.550;2024-03-23T06:04:50;5.30;99.90
33927;DHT22;20485;50.992;5.550;2024-03-23T06:07:16;5.40;99.90
33927;DHT22;20485;50.992;5.550;2024-03-23T06:09:42;5.50;99.90
33927;DHT22;20485;50.992;5.550;2024-03-23T06:12:08;5.60;99.90
33927;DHT22;20485;50.992;5.550;2024-03-23T06:14:35;5.60;99.90
33927;DHT22;20485;50.992;5.550;2024-03-23T06:17:01;5.50;99.90
33927;DHT22;20485;50.992;5.550;2024-03-23T06:19:27;5.50;99.90
33927;DHT22;20485;50.992;5.550;2024-03-23T06:21:53;5.40;99.90
33927;DHT22;20485;50.992;5.550;2024-03-23T06:24:21;5.70;99.90
33927;DHT22;20485;50.992;5.550;2024-03-23T06:26:47;5.60;99.90
33927;DHT22;20485;50.992;5.550;2024-03-23T06:29:12;5.10;99.90
33927;DHT22;20485;50.992;5.550;2024-03-23T06:31:38;5.10;99.90
33927;DHT22;20485;50.992;5.550;2024-03-23T06:34:04;5.10;99.90
33927;DHT22;20485;50.992;5.550;2024-03-23T06:36:30;5.10;99.90
33927;DHT22;20485;50.992;5.550;2024-03-23T06:38:56;5.10;99.90
33927;DHT22;20485;50.992;5.550;2024-03-23T06:41:22;5.00;99.90
33927;DHT22;20485;50.992;5.550;2024-03-23T06:43:48;4.90;99.90
33927;DHT22;20485;50.992;5.550;2024-03-23T06:46:13;5.00;99.90
33927;DHT22;20485;50.992;5.550;2024-03-23T06:48:39;5.00;99.90
33927;DHT22;20485;50.992;5.550;2024-03-23T06:51:05;5.00;99.90
33927;DHT22;20485;50.992;5.550;2024-03-23T06:53:32;5.00;99.90
33927;DHT22;20485;50.992;5.550;2024-03-23T06:55:57;5.00;99.90
33927;DHT22;20485;50.992;5.550;2024-03-23T06:58:24;5.10;99.90
33927;DHT22;20485;50.992;5.550;2024-03-23T07:00:51;5.10;99.90
33927;DHT22;20485;50.992;5.550;2024-03-23T07:03:20;5.20;99.90
33927;DHT22;20485;50.992;5.550;2024-03-23T07:05:46;5.40;99.90
33927;DHT22;20485;50.992;5.550;2024-03-23T07:08:12;5.50;99.90
33927;DHT22;20485;50.992;5.550;2024-03-23T07:10:41;5.60;99.90
33927;DHT22;20485;50.992;5.550;2024-03-23T07:13:06;5.70;99.90
33927;DHT22;20485;50.992;5.550;2024-03-23T07:15:33;5.80;99.90
33927;DHT22;20485;50.992;5.550;2024-03-23T07:17:58;5.90;99.90
33927;DHT22;20485;50.992;5.550;2024-03-23T07:20:24;6.80;99.90
33927;DHT22;20485;50.992;5.550;2024-03-23T07:22:50;5.90;99.90
33927;DHT22;20485;50.992;5.550;2024-03-23T07:25:15;5.90;99.90
33927;DHT22;20485;50.992;5.550;2024-03-23T07:27:42;6.00;99.90
33927;DHT22;20485;50.992;5.550;2024-03-23T07:30:08;6.00;99.90
33927;DHT22;20485;50.992;5.550;2024-03-23T07:32:34;6.10;99.90
33927;DHT22;20485;50.992;5.550;2024-03-23T07:35:00;6.20;99.90
33927;DHT22;20485;50.992;5.550;2024-03-23T07:37:26;6.20;99.90
33927;DHT22;20485;50.992;5.550;2024-03-23T07:39:51;6.30;99.90
33927;DHT22;20485;50.992;5.550;2024-03-23T07:42:17;6.40;99.90
33927;DHT22;20485;50.992;5.550;2024-03-23T07:44:43;6.50;99.90
33927;DHT22;20485;50.992;5.550;2024-03-23T07:47:08;6.70;99.90
33927;DHT22;20485;50.992;5.550;2024-03-23T07:49:34;6.80;99.90
33927;DHT22;20485;50.992;5.550;2024-03-23T07:51:59;6.90;99.90
33927;DHT22;20485;50.992;5.550;2024-03-23T07:54:25;7.00;99.90
33927;DHT22;20485;50.992;5.550;2024-03-23T07:56:50;6.90;99.90
33927;DHT22;20485;50.992;5.550;2024-03-23T07:59:16;7.00;99.90
33927;DHT22;20485;50.992;5.550;2024-03-23T08:01:43;6.90;99.90
33927;DHT22;20485;50.992;5.550;2024-03-23T08:04:09;6.90;99.90
33927;DHT22;20485;50.992;5.550;2024-03-23T08:06:35;6.80;99.90
33927;DHT22;20485;50.992;5.550;2024-03-23T08:09:00;6.90;99.90
33927;DHT22;20485;50.992;5.550;2024-03-23T08:11:27;6.90;99.90
33927;DHT22;20485;50.992;5.550;2024-03-23T08:13:53;7.10;99.90
33927;DHT22;20485;50.992;5.550;2024-03-23T08:16:19;6.90;99.90
33927;DHT22;20485;50.992;5.550;2024-03-23T08:18:44;7.00;99.90
33927;DHT22;20485;50.992;5.550;2024-03-23T08:21:10;7.00;99.90
33927;DHT22;20485;50.992;5.550;2024-03-23T08:23:36;7.00;99.90
33927;DHT22;20485;50.992;5.550;2024-03-23T08:26:11;7.00;99.90
33927;DHT22;20485;50.992;5.550;2024-03-23T08:31:58;7.10;99.90
33927;DHT22;20485;50.992;5.550;2024-03-23T08:34:26;7.10;99.90
33927;DHT22;20485;50.992;5.550;2024-03-23T08:36:51;7.10;99.90
33927;DHT22;20485;50.992;5.550;2024-03-23T08:39:17;7.20;99.90
33927;DHT22;20485;50.992;5.550;2024-03-23T08:41:43;7.30;99.90
33927;DHT22;20485;50.992;5.550;2024-03-23T08:44:11;7.30;99.90
33927;DHT22;20485;50.992;5.550;2024-03-23T08:46:37;7.40;99.90
33927;DHT22;20485;50.992;5.550;2024-03-23T08:49:02;7.60;99.90
33927;DHT22;20485;50.992;5.550;2024-03-23T08:51:28;7.90;99.90
33927;DHT22;20485;50.992;5.550;2024-03-23T08:53:53;8.10;99.90
33927;DHT22;20485;50.992;5.550;2024-03-23T08:56:19;8.20;99.90
33927;DHT22;20485;50.992;5.550;2024-03-23T08:58:45;8.30;99.90
33927;DHT22;20485;50.992;5.550;2024-03-23T09:01:12;8.40;99.90
33927;DHT22;20485;50.992;5.550;2024-03-23T09:03:41;8.40;99.90
33927;DHT22;20485;50.992;5.550;2024-03-23T09:06:16;8.30;99.90
33927;DHT22;20485;50.992;5.550;2024-03-23T09:08:42;8.20;99.90
33927;DHT22;20485;50.992;5.550;2024-03-23T09:11:12;8.20;99.90
33927;DHT22;20485;50.992;5.550;2024-03-23T14:37:49;7.50;99.90
33927;DHT22;20485;50.992;5.550;2024-03-23T14:40:16;9.00;99.90
33927;DHT22;20485;50.992;5.550;2024-03-23T14:42:41;7.60;99.90
33927;DHT22;20485;50.992;5.550;2024-03-23T14:45:07;7.40;99.90
33927;DHT22;20485;50.992;5.550;2024-03-23T14:47:33;7.40;99.90
33927;DHT22;20485;50.992;5.550;2024-03-23T14:49:58;7.30;99.90
33927;DHT22;20485;50.992;5.550;2024-03-23T14:52:24;7.10;99.90
33927;DHT22;20485;50.992;5.550;2024-03-23T14:54:50;7.10;99.90
33927;DHT22;20485;50.992;5.550;2024-03-23T14:57:15;8.00;99.90
33927;DHT22;20485;50.992;5.550;2024-03-23T14:59:41;7.20;99.90
33927;DHT22;20485;50.992;5.550;2024-03-23T15:02:10;7.40;99.90
33927;DHT22;20485;50.992;5.550;2024-03-23T15:04:38;7.40;99.90
33927;DHT22;20485;50.992;5.550;2024-03-23T15:07:05;7.40;99.90
33927;DHT22;20485;50.992;5.550;2024-03-23T15:09:31;7.50;99.90
33927;DHT22;20485;50.992;5.550;2024-03-23T15:11:58;7.60;99.90
33927;DHT22;20485;50.992;5.550;2024-03-23T15:14:24;7.30;99.90
33927;DHT22;20485;50.992;5.550;2024-03-23T15:16:49;7.30;99.90
33927;DHT22;20485;50.992;5.550;2024-03-23T15:19:16;7.50;99.90
33927;DHT22;20485;50.992;5.550;2024-03-23T15:21:43;7.60;99.90
33927;DHT22;20485;50.992;5.550;2024-03-23T15:24:09;7.80;99.90
33927;DHT22;20485;50.992;5.550;2024-03-23T15:26:37;7.80;99.90
33927;DHT22;20485;50.992;5.550;2024-03-23T15:29:03;7.80;99.90
33927;DHT22;20485;50.992;5.550;2024-03-23T15:31:35;7.90;99.90
33927;DHT22;20485;50.992;5.550;2024-03-23T15:34:01;8.10;99.90
33927;DHT22;20485;50.992;5.550;2024-03-23T15:36:26;8.40;99.90
33927;DHT22;20485;50.992;5.550;2024-03-23T15:38:52;8.40;99.90
33927;DHT22;20485;50.992;5.550;2024-03-23T15:41:20;8.50;99.90
33927;DHT22;20485;50.992;5.550;2024-03-23T15:43:48;8.60;99.90
33927;DHT22;20485;50.992;5.550;2024-03-23T15:46:15;8.60;99.90
33927;DHT22;20485;50.992;5.550;2024-03-23T15:48:43;8.60;99.90
33927;DHT22;20485;50.992;5.550;2024-03-23T15:51:12;8.60;99.90
33927;DHT22;20485;50.992;5.550;2024-03-23T15:53:38;9.50;99.90
33927;DHT22;20485;50.992;5.550;2024-03-23T15:56:04;8.70;99.90
33927;DHT22;20485;50.992;5.550;2024-03-23T15:58:31;8.70;99.90
33927;DHT22;20485;50.992;5.550;2024-03-23T16:00:58;8.70;99.90
33927;DHT22;20485;50.992;5.550;2024-03-23T16:03:25;8.70;99.90
33927;DHT22;20485;50.992;5.550;2024-03-23T16:05:57;8.70;99.90
33927;DHT22;20485;50.992;5.550;2024-03-23T16:08:23;8.60;99.90
33927;DHT22;20485;50.992;5.550;2024-03-23T16:10:50;8.40;99.90
33927;DHT22;20485;50.992;5.550;2024-03-23T17:56:38;5.90;99.90
